nws-alerts: Checking more than four warning/county codes can delay the loading of your pages. You should use a cron job to get the data.

Nearby METAR Reports

 

KFCI - Richmond/Chester, Virginia, USA
Distance from station: ESE 7mi, 12km
Updated: Wed, 22-Jan-2020 12:56pm EST
Clear
Clear
 Wind from NW
Wind: NW 8 mph , 13 km/h
Temperature: 37°F , 3°C
Wind Chill: 31°F , -1°C
Dew Point: 18°F , -8°C
Humidity: 45%
Barometer: 30.44 inHg , 1030.8 hPa
Clouds: Clear
Visibility: 10 miles , 16 km
2020/01/22 17:56 KFCI 221756Z AUTO 32007KT 10SM CLR 03/M08 A3044 RMK AO2 SLP323 T00331083 10033 21083 58026
KPTB - Petersburg, Virginia, USA
Distance from station: SSE 19mi, 31km
Updated: Wed, 22-Jan-2020 1:15pm EST
Clear
Clear
 Wind from NE
Wind: NE 7 mph , 11 km/h
Temperature: 39°F , 4°C
Wind Chill: 34°F , 1°C
Dew Point: 16°F , -9°C
Humidity: 39%
Barometer: 30.44 inHg , 1030.8 hPa
Clouds: Clear
Visibility: 10 miles , 16 km
2020/01/22 18:15 KPTB 221815Z AUTO 04006KT 10SM CLR 04/M09 A3044 RMK AO2 T00381095
 
KRIC - Richmond, Virginia, USA
Distance from station: ENE 19mi, 31km
Updated: Wed, 22-Jan-2020 12:54pm EST
Few Clouds
Few Clouds
 Wind from N
Wind: N 8 mph , 13 km/h
Temperature: 39°F , 4°C
Wind Chill: 33°F , 1°C
Dew Point: 18°F , -8°C
Humidity: 42%
Barometer: 30.44 inHg , 1030.8 hPa
Clouds: Few Clouds
Visibility: 10 miles , 16 km
Cloud details: Few Clouds 30000 ft
2020/01/22 17:54 KRIC 221754Z 35007KT 10SM FEW300 04/M08 A3044 RMK AO2 SLP316 T00391083 10044 21061 58025
KOFP - Richmond/Hanover, Virginia, USA
Distance from station: NNE 22mi, 36km
Updated: Wed, 22-Jan-2020 12:54pm EST
Clear
Clear
 Wind from varies
Wind: varies 6 mph , 9 km/h
Temperature: 39°F , 4°C
Wind Chill: 35°F , 2°C
Dew Point: 18°F , -8°C
Humidity: 42%
Barometer: 30.47 inHg , 1031.8 hPa
Clouds: Clear
Visibility: 10 miles , 16 km
2020/01/22 17:54 KOFP 221754Z AUTO VRB05KT 10SM CLR 04/M08 A3047 RMK AO2 SLP318 T00391083 10039 21067 58024
 
KW96 - Quinton, Virginia, USA
Distance from station: E 28mi, 46km
Updated: Wed, 22-Jan-2020 1:15pm EST
Clear
Clear
 Wind from NE
Wind: NE 6 mph , 9 km/h
Temperature: 39°F , 4°C
Wind Chill: 35°F , 2°C
Dew Point: 18°F , -8°C
Humidity: 42%
Barometer: 30.44 inHg , 1030.8 hPa
Clouds: Clear
Visibility: 10 miles , 16 km
2020/01/22 18:15 KW96 221815Z AUTO 04005KT 10SM CLR 04/M08 A3044 RMK AO1 T00361084
KBKT - Blackstone Army, Virginia, USA
Distance from station: SW 30mi, 48km
Updated: Wed, 22-Jan-2020 1:15pm EST
Clear
Clear
 Wind from NNW
Wind: NNW 6 mph , 9 km/h
Temperature: 39°F , 4°C
Wind Chill: 35°F , 2°C
Dew Point: 18°F , -8°C
Humidity: 42%
Barometer: 30.41 inHg , 1029.8 hPa
Clouds: Clear
Visibility: 10 miles , 16 km
2020/01/22 18:15 KBKT 221815Z AUTO 34005KT 10SM CLR 04/M08 A3041 RMK AO1 T00351083
 
KW81 - Crewe, Virginia, USA
Distance from station: SW 30mi, 49km
Updated: Wed, 22-Jan-2020 1:15pm EST
Clear
Clear
 Wind from N
Wind: N 5 mph , 7 km/h
Temperature: 37°F , 3°C
Wind Chill: 33°F , 1°C
Dew Point: 10°F , -12°C
Humidity: 33%
Barometer: 30.42 inHg , 1030.1 hPa
Clouds: Clear
Visibility: 10 miles , 16 km
2020/01/22 18:15 KW81 221815Z AUTO 01004KT 10SM CLR 03/M12 A3042 RMK AO1 T00261119
K7W4 - Bumpass, Virginia, USA
Distance from station: N 38mi, 61km
Updated: Wed, 22-Jan-2020 1:15pm EST
Clear
Clear
 Wind from N
Wind: N 3 mph , 6 km/h
Temperature: 36°F , 2°C
Dew Point: 14°F , -10°C
Humidity: 41%
Barometer: 30.44 inHg , 1030.8 hPa
Clouds: Clear
Visibility: 10 miles , 16 km
2020/01/22 18:15 K7W4 221815Z AUTO 36003KT 10SM CLR 02/M10 A3044 RMK AO1 T00211099
 
KFVX - Farmville, Virginia, USA
Distance from station: W 43mi, 69km
Updated: Wed, 22-Jan-2020 1:15pm EST
Clear
Clear
 Wind from E
Wind: E 3 mph , 6 km/h
Temperature: 39°F , 4°C
Dew Point: 14°F , -10°C
Humidity: 36%
Barometer: 30.42 inHg , 1030.1 hPa
Clouds: Clear
Visibility: 10 miles , 16 km
2020/01/22 18:15 KFVX 221815Z AUTO 08003KT 10SM CLR 04/M10 A3042 RMK AO2 T00351098
KW31 - Kenbridge, Virginia, USA
Distance from station: SW 43mi, 70km
Updated: Wed, 22-Jan-2020 1:15pm EST
Clear
Clear
 Wind from N
Wind: N 7 mph , 11 km/h
Temperature: 37°F , 3°C
Wind Chill: 32°F , 0°C
Dew Point: 18°F , -8°C
Humidity: 45%
Barometer: 30.40 inHg , 1029.5 hPa
Clouds: Clear
Visibility: 10 miles , 16 km
2020/01/22 18:15 KW31 221815Z AUTO 01006KT 10SM CLR 03/M08 A3040 RMK AO1 T00311083
 
KLKU - Louisa, Virginia, USA
Distance from station: NNW 44mi, 72km
Updated: Wed, 22-Jan-2020 1:15pm EST
Clear
Clear
 Wind from W
Wind: W 6 mph , 9 km/h
Temperature: 37°F , 3°C
Wind Chill: 32°F , 0°C
Dew Point: 12°F , -11°C
Humidity: 35%
Barometer: 30.47 inHg , 1031.8 hPa
Clouds: Clear
Visibility: 10 miles , 16 km
2020/01/22 18:15 KLKU 221815Z AUTO 28005KT 10SM CLR 03/M11 A3047 RMK AO2 T00261105
KLVL - Lawrenceville, Virginia, USA
Distance from station: S 46mi, 75km
Updated: Wed, 22-Jan-2020 1:15pm EST
Clear
Clear
 Wind from NW
Wind: NW 5 mph , 7 km/h
Temperature: 41°F , 5°C
Wind Chill: 38°F , 3°C
Dew Point: 16°F , -9°C
Humidity: 36%
Barometer: 30.42 inHg , 1030.1 hPa
Clouds: Clear
Visibility: 10 miles , 16 km
2020/01/22 18:15 KLVL 221815Z AUTO 31004KT 10SM CLR 05/M09 A3042 RMK AO1 T00471093
 
KAKQ - Norfolk/Wakefld, Virginia, USA
Distance from station: SE 47mi, 75km
Updated: Wed, 22-Jan-2020 12:54pm EST
Clear
Clear
 Wind from varies
Wind: varies 7 mph , 11 km/h
Temperature: 39°F , 4°C
Wind Chill: 34°F , 1°C
Dew Point: 16°F , -9°C
Humidity: 39%
Barometer: 30.43 inHg , 1030.5 hPa
Clouds: Clear
Visibility: 10 miles , 16 km
2020/01/22 17:54 KAKQ 221754Z AUTO VRB06KT 10SM CLR 04/M09 A3043 RMK AO2 SLP308 T00441089 10050 21044 58024
KFYJ - West Point, Virginia, USA
Distance from station: E 48mi, 78km
Updated: Wed, 22-Jan-2020 1:15pm EST
Clear
Clear
 Wind from calm
Wind: Calm
Temperature: 39°F , 4°C
Dew Point: 19°F , -7°C
Humidity: 45%
Barometer: 30.45 inHg , 1031.2 hPa
Clouds: Clear
Visibility: 10 miles , 16 km
2020/01/22 18:15 KFYJ 221815Z AUTO 00000KT 10SM CLR 04/M07 A3045 RMK AO1 T00421071
 
KXSA - Tappahannock, Virginia, USA
Distance from station: NE 51mi, 82km
Updated: Wed, 22-Jan-2020 1:15pm EST
Clear
Clear
 Wind from N
Wind: N 3 mph , 6 km/h
Temperature: 39°F , 4°C
Dew Point: 18°F , -8°C
Humidity: 42%
Barometer: 30.45 inHg , 1031.2 hPa
Clouds: Clear
Visibility: 10 miles , 16 km
2020/01/22 18:15 KXSA 221815Z AUTO 36003KT 10SM CLR 04/M08 A3045 RMK AO2 T00361080
KEMV - Emporia, Virginia, USA
Distance from station: S 52mi, 84km
Updated: Wed, 22-Jan-2020 1:15pm EST
Clear
Clear
 Wind from NW
Wind: NW 6 mph , 9 km/h
Temperature: 41°F , 5°C
Wind Chill: 37°F , 3°C
Dew Point: 18°F , -8°C
Humidity: 39%
Barometer: 30.43 inHg , 1030.5 hPa
Clouds: Clear
Visibility: 10 miles , 16 km
2020/01/22 18:15 KEMV 221815Z AUTO 31005KT 10SM CLR 05/M08 A3043 RMK AO2 T00451079
 
KJGG - Williamsburg, Virginia, USA
Distance from station: ESE 53mi, 85km
Updated: Wed, 22-Jan-2020 1:15pm EST
Clear
Clear
 Wind from calm
Wind: Calm
Temperature: 46°F , 8°C
Dew Point: 21°F , -6°C
Humidity: 37%
Barometer: 30.44 inHg , 1030.8 hPa
Clouds: Clear
Visibility: 10 miles , 16 km
2020/01/22 18:15 KJGG 221815Z AUTO 00000KT 10SM CLR 08/M06 A3044 RMK AO1
KAVC - South Hill/Meckl, Virginia, USA
Distance from station: SSW 56mi, 90km
Updated: Wed, 22-Jan-2020 1:15pm EST
Clear
Clear
 Wind from N
Wind: N 7 mph , 11 km/h
Temperature: 39°F , 4°C
Wind Chill: 34°F , 1°C
Dew Point: 14°F , -10°C
Humidity: 36%
Barometer: 30.46 inHg , 1031.5 hPa
Clouds: Clear
Visibility: 10 miles , 16 km
2020/01/22 18:15 KAVC 221815Z AUTO 36006KT 10SM CLR 04/M10 A3046 RMK AO2 T00431102
 
KGVE - Gordonsville, Virginia, USA
Distance from station: NNW 58mi, 93km
Updated: Wed, 22-Jan-2020 1:15pm EST
Clear
Clear
 Wind from calm
Wind: Calm
Temperature: 37°F , 3°C
Dew Point: 12°F , -11°C
Humidity: 35%
Barometer: 30.42 inHg , 1030.1 hPa
Clouds: Clear
Visibility: 10 miles , 16 km
2020/01/22 18:15 KGVE 221815Z AUTO 00000KT 10SM CLR 03/M11 A3042 RMK AO1 T00261115
KEZF - Fredericksb/Shan, Virginia, USA
Distance from station: N 59mi, 95km
Updated: Wed, 22-Jan-2020 1:15pm EST
Clear
Clear
 Wind from calm
Wind: Calm
Temperature: 37°F , 3°C
Dew Point: 19°F , -7°C
Humidity: 48%
Barometer: 30.45 inHg , 1031.2 hPa
Clouds: Clear
Visibility: 10 miles , 16 km
2020/01/22 18:15 KEZF 221815Z AUTO 00000KT 10SM CLR 03/M07 A3045 RMK AO2 T00281071